Zoar, Indiana
Current Conditions -  °F | °C
As of 4:15 AM on Saturday 25 Oct 2014 (Local Time) from KHNB Reporting Station
Overcast Overcast  
Wind Chill: 54°   Ceiling: 4000
Heat Index: 54°   Visibility: 7mi
Dew Point: 50°   Wind: 3mph
Humidity: 88%   Direction: 190°S
Pressure: 30.02"   Gusts: NA
Location:  38.277°N, 87.1283°W
Report Text: KHNB 250915Z AUTO 19003KT 7SM OVC040 12/10 A3002 RMK AO1
Loading
Personal Weather Stations






























Interactive Weather Map
Tropical Storm Tracking
New forecast layout! Learn more

10-Day Weather Forecast

Advertisements
Track Severe Weather on mobile